Time;durP1;ratioP1;P1;durP2;ratioP2;P2;SDS_P1;SDS_P2;PMS_P1;PMS_P2;Temp;Humidity;BMP_temperature;BMP_pressure;BME280_temperature;BME280_humidity;BME280_pressure;Samples;Min_cycle;Max_cycle;Signal;HPM_P1;HPM_P2
2022/02/01 00:03:33;;;;;;;0.70;0.40;;;;;;;;;;5058792;28;20033;-65
2022/02/01 00:06:15;;;;;;;0.80;0.50;;;;;;;;;;5027195;28;20424;-66
2022/02/01 00:16:47;;;;;;;0.77;0.38;;;;;;;;;;5060119;28;20024;-65
2022/02/01 00:37:59;;;;;;;1.02;0.38;;;;;;;;;;5059322;28;20041;-66
2022/02/01 00:40:26;;;;;;;1.35;0.50;;;;;;;;;;5061297;28;20498;-65
2022/02/01 00:42:52;;;;;;;0.80;0.40;;;;;;;;;;5059380;28;20104;-66
2022/02/01 00:45:18;;;;;;;0.50;0.30;;;;;;;;;;5059860;28;20053;-61
2022/02/01 00:47:44;;;;;;;1.65;0.57;;;;;;;;;;5059237;28;20040;-66
2022/02/01 00:50:13;;;;;;;0.85;0.45;;;;;;;;;;5061299;28;20028;-66
2022/02/01 00:52:39;;;;;;;2.05;0.40;;;;;;;;;;5059751;28;20017;-66
2022/02/01 00:55:06;;;;;;;0.30;0.30;;;;;;;;;;5059377;28;20017;-66
2022/02/01 00:57:32;;;;;;;0.77;0.50;;;;;;;;;;5058399;28;20028;-66
2022/02/01 00:59:58;;;;;;;0.75;0.30;;;;;;;;;;5060411;28;20013;-66
2022/02/01 01:02:24;;;;;;;1.58;0.50;;;;;;;;;;5061452;28;20043;-66
2022/02/01 01:04:50;;;;;;;0.63;0.30;;;;;;;;;;5041514;28;20454;-66
2022/02/01 01:07:16;;;;;;;1.02;0.40;;;;;;;;;;5060544;28;20031;-63
2022/02/01 01:09:42;;;;;;;0.82;0.40;;;;;;;;;;5060924;28;20092;-64
2022/02/01 01:12:09;;;;;;;1.55;0.57;;;;;;;;;;5041266;28;20029;-66
2022/02/01 01:44:36;;;;;;;0.50;0.45;;;;;;;;;;5063829;28;20023;-66
2022/02/01 01:53:10;;;;;;;0.50;0.30;;;;;;;;;;5061692;28;20024;-65
2022/02/01 01:55:34;;;;;;;1.40;0.70;;;;;;;;;;5062715;28;20107;-66
2022/02/01 01:58:00;;;;;;;1.90;0.30;;;;;;;;;;5061802;28;20021;-65
2022/02/01 02:02:58;;;;;;;1.05;0.75;;;;;;;;;;5063131;28;20538;-66
2022/02/01 02:05:24;;;;;;;0.75;0.30;;;;;;;;;;5066389;28;20044;-67
2022/02/01 02:07:51;;;;;;;1.88;0.60;;;;;;;;;;5061714;28;20020;-66
2022/02/01 02:10:18;;;;;;;0.60;0.50;;;;;;;;;;5055524;28;20418;-61
2022/02/01 02:13:00;;;;;;;1.20;0.50;;;;;;;;;;5061556;28;20020;-66
2022/02/01 02:15:48;;;;;;;0.82;0.30;;;;;;;;;;5073280;28;20029;-66
2022/02/01 02:18:18;;;;;;;0.85;0.38;;;;;;;;;;5067263;28;20036;-66
2022/02/01 02:20:48;;;;;;;1.02;0.50;;;;;;;;;;5062102;28;20020;-61
2022/02/01 02:23:14;;;;;;;1.23;0.60;;;;;;;;;;5061882;28;20063;-62
2022/02/01 02:25:41;;;;;;;0.82;0.32;;;;;;;;;;5062602;28;20055;-64
2022/02/01 02:28:10;;;;;;;0.50;0.40;;;;;;;;;;5063032;28;20025;-64
2022/02/01 02:30:36;;;;;;;0.45;0.20;;;;;;;;;;5062140;28;20438;-64
2022/02/01 02:33:04;;;;;;;1.73;0.50;;;;;;;;;;5063163;28;20046;-64
2022/02/01 02:35:34;;;;;;;1.75;0.63;;;;;;;;;;5062375;28;20036;-63
2022/02/01 02:38:08;;;;;;;2.08;0.70;;;;;;;;;;5061482;28;20053;-64
2022/02/01 02:45:53;;;;;;;1.30;0.50;;;;;;;;;;5063353;28;20424;-64
2022/02/01 02:48:19;;;;;;;1.25;0.60;;;;;;;;;;5063476;28;20025;-61
2022/02/01 02:50:45;;;;;;;2.00;0.50;;;;;;;;;;5065856;28;20049;-63
2022/02/01 02:53:11;;;;;;;1.27;0.50;;;;;;;;;;5063013;28;20028;-64
2022/02/01 02:55:37;;;;;;;1.75;0.63;;;;;;;;;;5062681;28;20615;-64
2022/02/01 02:58:03;;;;;;;1.35;0.60;;;;;;;;;;5062966;28;20108;-64
2022/02/01 03:00:29;;;;;;;1.92;0.80;;;;;;;;;;5062136;28;20016;-64
2022/02/01 03:02:55;;;;;;;1.00;0.60;;;;;;;;;;5060744;28;20025;-64
2022/02/01 03:05:21;;;;;;;1.23;0.70;;;;;;;;;;5061974;28;20482;-63
2022/02/01 03:07:47;;;;;;;1.40;0.45;;;;;;;;;;5062134;28;20048;-64
2022/02/01 03:10:13;;;;;;;1.58;0.50;;;;;;;;;;5060875;28;20077;-63
2022/02/01 03:13:18;;;;;;;1.40;0.50;;;;;;;;;;5062639;28;20085;-62
2022/02/01 03:20:43;;;;;;;1.10;0.50;;;;;;;;;;5060638;28;20024;-63
2022/02/01 03:23:09;;;;;;;2.13;0.65;;;;;;;;;;5061268;28;20446;-64
2022/02/01 03:25:35;;;;;;;2.10;0.47;;;;;;;;;;5062062;28;20035;-64
2022/02/01 03:28:01;;;;;;;1.50;0.47;;;;;;;;;;5060930;28;20029;-64
2022/02/01 03:30:27;;;;;;;1.15;0.50;;;;;;;;;;5065442;28;20019;-64
2022/02/01 03:32:54;;;;;;;2.17;0.70;;;;;;;;;;5072668;28;20032;-64
2022/02/01 03:35:20;;;;;;;1.45;0.70;;;;;;;;;;5072026;28;20036;-60
2022/02/01 03:37:46;;;;;;;2.90;1.00;;;;;;;;;;5072037;28;20036;-64
2022/02/01 03:40:16;;;;;;;2.08;0.50;;;;;;;;;;5072128;28;20473;-65
2022/02/01 03:42:42;;;;;;;1.52;0.68;;;;;;;;;;5070899;28;20036;-64
2022/02/01 03:45:09;;;;;;;1.55;0.52;;;;;;;;;;5072565;28;20039;-65
2022/02/01 03:47:35;;;;;;;1.77;0.57;;;;;;;;;;5071203;28;20024;-64
2022/02/01 03:50:01;;;;;;;2.17;0.68;;;;;;;;;;5072115;28;20032;-65
2022/02/01 03:52:28;;;;;;;1.70;0.65;;;;;;;;;;5071218;28;20545;-65
2022/02/01 03:54:54;;;;;;;1.25;0.55;;;;;;;;;;5072038;28;20118;-65
2022/02/01 03:57:20;;;;;;;3.10;1.20;;;;;;;;;;5071788;28;20048;-60
2022/02/01 03:59:46;;;;;;;1.90;0.82;;;;;;;;;;5072008;28;20020;-65
2022/02/01 04:02:13;;;;;;;1.60;0.70;;;;;;;;;;5072099;28;20024;-65
2022/02/01 04:04:40;;;;;;;2.28;1.05;;;;;;;;;;5071155;28;20073;-64
2022/02/01 04:07:06;;;;;;;2.08;0.60;;;;;;;;;;5071435;28;20477;-64
2022/02/01 04:09:33;;;;;;;1.65;0.68;;;;;;;;;;5071162;28;20035;-65
2022/02/01 04:12:01;;;;;;;1.00;0.70;;;;;;;;;;5071773;28;20047;-65
2022/02/01 04:14:30;;;;;;;2.22;0.90;;;;;;;;;;5053404;28;20373;-65
2022/02/01 04:16:57;;;;;;;2.63;0.75;;;;;;;;;;5071792;28;20029;-65
2022/02/01 04:19:24;;;;;;;1.90;1.00;;;;;;;;;;5071238;28;20490;-65
2022/02/01 04:22:03;;;;;;;2.38;1.10;;;;;;;;;;5071713;28;20020;-65
2022/02/01 04:24:30;;;;;;;1.45;0.60;;;;;;;;;;5071108;28;20024;-64
2022/02/01 04:26:56;;;;;;;2.63;0.75;;;;;;;;;;5071955;28;20021;-65
2022/02/01 04:29:22;;;;;;;1.77;0.57;;;;;;;;;;5071187;28;20035;-61
2022/02/01 04:31:48;;;;;;;2.17;0.80;;;;;;;;;;5071486;28;20028;-65
2022/02/01 04:34:14;;;;;;;1.58;0.65;;;;;;;;;;5071541;28;20126;-65
2022/02/01 04:36:40;;;;;;;2.40;0.50;;;;;;;;;;5070109;28;20495;-65
2022/02/01 04:39:06;;;;;;;2.13;0.60;;;;;;;;;;5071663;28;20028;-65
2022/02/01 04:41:32;;;;;;;3.92;1.00;;;;;;;;;;5070684;28;20536;-65
2022/02/01 04:43:59;;;;;;;1.70;0.90;;;;;;;;;;5071465;28;20055;-65
2022/02/01 04:46:25;;;;;;;2.45;0.75;;;;;;;;;;5071013;28;20028;-67
2022/02/01 04:48:58;;;;;;;2.88;0.88;;;;;;;;;;5071294;28;20060;-64
2022/02/01 04:51:24;;;;;;;2.85;0.80;;;;;;;;;;5070711;28;20115;-62
2022/02/01 04:53:50;;;;;;;3.50;0.85;;;;;;;;;;5073254;28;20095;-64
2022/02/01 04:56:17;;;;;;;4.63;1.65;;;;;;;;;;5075633;28;20107;-65
2022/02/01 04:58:43;;;;;;;1.50;0.70;;;;;;;;;;5074763;28;20094;-65
2022/02/01 05:01:09;;;;;;;2.65;0.93;;;;;;;;;;5075186;28;20025;-65
2022/02/01 05:03:35;;;;;;;2.45;0.90;;;;;;;;;;5074400;28;20118;-65
2022/02/01 05:06:02;;;;;;;1.60;0.82;;;;;;;;;;5075269;28;20025;-65
2022/02/01 05:08:28;;;;;;;1.63;0.68;;;;;;;;;;5074533;28;20024;-65
2022/02/01 05:10:54;;;;;;;2.05;0.80;;;;;;;;;;5057208;28;20021;-65
2022/02/01 05:13:50;;;;;;;2.20;0.70;;;;;;;;;;5075066;28;20024;-65
2022/02/01 05:16:15;;;;;;;2.90;0.93;;;;;;;;;;5074864;28;20029;-65
2022/02/01 05:18:50;;;;;;;2.15;0.88;;;;;;;;;;5074395;28;20025;-65
2022/02/01 05:21:25;;;;;;;1.70;0.90;;;;;;;;;;5074951;28;20346;-65
2022/02/01 05:23:51;;;;;;;2.35;1.08;;;;;;;;;;5074837;28;20033;-65
2022/02/01 05:26:18;;;;;;;2.45;0.75;;;;;;;;;;5075044;28;20025;-65
2022/02/01 05:28:44;;;;;;;2.22;0.70;;;;;;;;;;5073624;28;20616;-65
2022/02/01 05:31:11;;;;;;;1.58;0.85;;;;;;;;;;5075314;28;20067;-65
2022/02/01 05:33:37;;;;;;;2.20;0.60;;;;;;;;;;5073889;28;20031;-65
2022/02/01 05:36:05;;;;;;;1.58;0.60;;;;;;;;;;5074652;28;20039;-65
2022/02/01 05:38:31;;;;;;;2.65;1.05;;;;;;;;;;5073443;28;20171;-64
2022/02/01 05:40:58;;;;;;;3.03;0.93;;;;;;;;;;5074904;28;20130;-65
2022/02/01 05:43:26;;;;;;;3.47;1.30;;;;;;;;;;5074101;28;20421;-60
2022/02/01 05:45:53;;;;;;;1.85;0.80;;;;;;;;;;5074627;28;20016;-65
2022/02/01 05:48:19;;;;;;;2.17;0.90;;;;;;;;;;5074394;28;20025;-65
2022/02/01 05:50:48;;;;;;;2.85;1.42;;;;;;;;;;5073733;28;20021;-65
2022/02/01 05:53:14;;;;;;;3.22;0.88;;;;;;;;;;5074423;28;20021;-66
2022/02/01 05:55:41;;;;;;;1.60;0.68;;;;;;;;;;5073708;28;20048;-65
2022/02/01 05:58:07;;;;;;;1.92;0.70;;;;;;;;;;5074153;28;20496;-65
2022/02/01 06:00:34;;;;;;;3.58;0.90;;;;;;;;;;5073299;28;20124;-65
2022/02/01 06:03:00;;;;;;;2.00;0.70;;;;;;;;;;5056244;28;20111;-65
2022/02/01 06:05:27;;;;;;;3.45;1.20;;;;;;;;;;5072867;28;20481;-61
2022/02/01 06:07:53;;;;;;;4.18;1.40;;;;;;;;;;5070946;28;20141;-59
2022/02/01 06:10:19;;;;;;;2.05;0.55;;;;;;;;;;5083400;28;20053;-67
2022/02/01 06:12:47;;;;;;;2.03;0.70;;;;;;;;;;5088806;28;20028;-65
2022/02/01 06:15:14;;;;;;;1.73;0.60;;;;;;;;;;5074136;28;20017;-65
2022/02/01 06:17:41;;;;;;;3.95;1.48;;;;;;;;;;5072849;28;20374;-65
2022/02/01 06:20:08;;;;;;;2.95;0.75;;;;;;;;;;5056001;28;20024;-65
2022/02/01 06:22:34;;;;;;;2.28;0.80;;;;;;;;;;5054751;28;20119;-65
2022/02/01 06:25:00;;;;;;;2.03;0.60;;;;;;;;;;5055925;28;20032;-65
2022/02/01 06:27:26;;;;;;;3.00;0.98;;;;;;;;;;5073582;28;20028;-61
2022/02/01 06:29:53;;;;;;;10.50;1.27;;;;;;;;;;5073548;28;20020;-66
2022/02/01 06:32:19;;;;;;;3.67;0.88;;;;;;;;;;5055639;28;20032;-65
2022/02/01 06:34:45;;;;;;;2.95;0.95;;;;;;;;;;5072881;28;20221;-65
2022/02/01 06:37:11;;;;;;;1.10;0.70;;;;;;;;;;5073232;28;20504;-61
2022/02/01 06:39:37;;;;;;;3.15;0.85;;;;;;;;;;5071482;28;20032;-61
2022/02/01 06:42:04;;;;;;;1.52;0.90;;;;;;;;;;5055299;28;20069;-62
2022/02/01 06:44:30;;;;;;;3.13;1.10;;;;;;;;;;5072537;28;20384;-66
2022/02/01 06:46:56;;;;;;;2.00;0.75;;;;;;;;;;5073463;28;20041;-63
2022/02/01 06:49:23;;;;;;;4.28;1.15;;;;;;;;;;5073084;28;20028;-62
2022/02/01 06:51:49;;;;;;;9.70;2.05;;;;;;;;;;5067451;28;20094;-59
2022/02/01 06:54:15;;;;;;;6.00;1.00;;;;;;;;;;5072782;28;20020;-64
2022/02/01 06:56:41;;;;;;;7.38;1.35;;;;;;;;;;5054227;28;20020;-68
2022/02/01 06:59:07;;;;;;;3.80;1.50;;;;;;;;;;5072919;28;20028;-70
2022/02/01 07:01:34;;;;;;;4.30;0.90;;;;;;;;;;5072231;28;20039;-69
2022/02/01 07:04:00;;;;;;;3.92;1.10;;;;;;;;;;5072655;28;20039;-69
2022/02/01 07:06:29;;;;;;;3.88;1.08;;;;;;;;;;5072682;28;20485;-64
2022/02/01 07:08:57;;;;;;;5.50;1.45;;;;;;;;;;5072334;28;20025;-63
2022/02/01 07:11:23;;;;;;;5.20;1.40;;;;;;;;;;5072646;28;20546;-62
2022/02/01 07:13:50;;;;;;;4.57;0.90;;;;;;;;;;5066600;28;20016;-60
2022/02/01 07:16:16;;;;;;;5.45;1.00;;;;;;;;;;5051413;28;20029;-61
2022/02/01 07:18:42;;;;;;;2.33;1.08;;;;;;;;;;5062320;28;20040;-58
2022/02/01 07:21:08;;;;;;;4.95;1.02;;;;;;;;;;5072309;28;20042;-59
2022/02/01 07:23:35;;;;;;;3.28;1.02;;;;;;;;;;5071699;28;20051;-59
2022/02/01 07:26:01;;;;;;;4.07;1.20;;;;;;;;;;5072467;28;20078;-60
2022/02/01 07:28:28;;;;;;;4.15;0.90;;;;;;;;;;5070861;28;20043;-57
2022/02/01 07:30:55;;;;;;;4.57;0.95;;;;;;;;;;5071750;28;20025;-63
2022/02/01 07:33:23;;;;;;;2.92;0.98;;;;;;;;;;5072478;28;20381;-62
2022/02/01 07:35:49;;;;;;;2.58;1.00;;;;;;;;;;5071547;28;20458;-63
2022/02/01 07:38:18;;;;;;;2.95;0.98;;;;;;;;;;5072593;28;20055;-60
2022/02/01 07:40:45;;;;;;;4.18;1.20;;;;;;;;;;5070940;28;20124;-59
2022/02/01 07:43:11;;;;;;;4.88;1.00;;;;;;;;;;5071756;28;20067;-62
2022/02/01 07:45:39;;;;;;;6.22;1.00;;;;;;;;;;5077607;28;20031;-61
2022/02/01 07:48:05;;;;;;;3.38;1.25;;;;;;;;;;5058679;28;20037;-61
2022/02/01 07:50:36;;;;;;;5.53;1.25;;;;;;;;;;5051911;28;20531;-62
2022/02/01 07:53:04;;;;;;;2.70;1.27;;;;;;;;;;5056834;28;20024;-61
2022/02/01 07:55:30;;;;;;;3.78;1.30;;;;;;;;;;5071226;28;20060;-57
2022/02/01 07:57:56;;;;;;;4.25;1.48;;;;;;;;;;5071563;28;20021;-61
2022/02/01 08:00:22;;;;;;;3.60;0.93;;;;;;;;;;5071577;28;20017;-61
2022/02/01 08:02:52;;;;;;;3.90;1.20;;;;;;;;;;5070717;28;20509;-62
2022/02/01 08:05:18;;;;;;;2.65;0.80;;;;;;;;;;5070501;28;20052;-55
2022/02/01 08:07:44;;;;;;;4.40;1.05;;;;;;;;;;5063030;28;20033;-61
2022/02/01 08:10:14;;;;;;;4.38;1.55;;;;;;;;;;5067942;28;20450;-61
2022/02/01 08:20:54;;;;;;;7.85;1.20;;;;;;;;;;5070840;28;20354;-61
2022/02/01 08:23:21;;;;;;;2.22;0.82;;;;;;;;;;5071902;28;20024;-61
2022/02/01 08:25:47;;;;;;;4.97;1.13;;;;;;;;;;5051977;28;20044;-61
2022/02/01 08:28:13;;;;;;;3.28;1.35;;;;;;;;;;5071434;28;20020;-62
2022/02/01 08:30:39;;;;;;;3.25;0.93;;;;;;;;;;5069369;28;20028;-61
2022/02/01 08:33:07;;;;;;;3.67;0.82;;;;;;;;;;5071388;28;20111;-61
2022/02/01 08:35:33;;;;;;;2.63;0.95;;;;;;;;;;5070478;28;20028;-56
2022/02/01 08:37:59;;;;;;;2.45;0.98;;;;;;;;;;5066484;28;20098;-59
2022/02/01 08:40:25;;;;;;;3.45;1.13;;;;;;;;;;5068289;28;20501;-61
2022/02/01 08:42:51;;;;;;;2.40;1.00;;;;;;;;;;5070230;28;20263;-61
2022/02/01 08:45:25;;;;;;;3.50;1.10;;;;;;;;;;5068746;28;20389;-62
2022/02/01 08:47:53;;;;;;;1.95;0.63;;;;;;;;;;5066605;28;20020;-61
2022/02/01 08:50:23;;;;;;;2.17;0.80;;;;;;;;;;5037083;28;20028;-62
2022/02/01 08:52:50;;;;;;;3.05;0.98;;;;;;;;;;5070476;28;20578;-61
2022/02/01 08:58:22;;;;;;;3.03;1.27;;;;;;;;;;5024849;28;20038;-62
2022/02/01 09:00:48;;;;;;;4.75;0.80;;;;;;;;;;5019258;28;20038;-57
2022/02/01 09:03:14;;;;;;;2.47;1.10;;;;;;;;;;5009029;28;20045;-62
2022/02/01 09:05:41;;;;;;;4.40;1.15;;;;;;;;;;5000736;28;20033;-61
2022/02/01 09:08:07;;;;;;;3.42;0.93;;;;;;;;;;5007970;28;20499;-62
2022/02/01 09:10:33;;;;;;;2.55;0.95;;;;;;;;;;5008126;28;20046;-56
2022/02/01 09:12:59;;;;;;;2.10;0.80;;;;;;;;;;5009007;28;20037;-61
2022/02/01 09:15:28;;;;;;;3.35;1.10;;;;;;;;;;5007936;28;20062;-61
2022/02/01 09:17:55;;;;;;;1.75;0.70;;;;;;;;;;5007913;28;20415;-62
2022/02/01 09:20:21;;;;;;;3.92;1.35;;;;;;;;;;5009055;28;20032;-62
2022/02/01 09:22:47;;;;;;;3.22;0.70;;;;;;;;;;5008110;28;20061;-62
2022/02/01 09:25:15;;;;;;;2.55;1.15;;;;;;;;;;5009181;28;20261;-61
2022/02/01 09:27:41;;;;;;;2.28;0.80;;;;;;;;;;5007439;28;20026;-62
2022/02/01 09:30:07;;;;;;;3.22;0.82;;;;;;;;;;5059506;28;20393;-60
2022/02/01 09:32:33;;;;;;;3.10;1.00;;;;;;;;;;5070014;28;20036;-56
2022/02/01 09:34:59;;;;;;;4.50;1.75;;;;;;;;;;5070625;28;20021;-61
2022/02/01 09:37:26;;;;;;;1.75;0.95;;;;;;;;;;5063910;28;20059;-62
2022/02/01 09:39:52;;;;;;;3.38;0.90;;;;;;;;;;5071469;28;20016;-61
2022/02/01 09:42:18;;;;;;;2.53;0.90;;;;;;;;;;5065715;28;20051;-62
2022/02/01 09:44:44;;;;;;;2.65;1.40;;;;;;;;;;5063383;28;20462;-61
2022/02/01 09:47:11;;;;;;;1.92;0.70;;;;;;;;;;5074217;28;20020;-61
2022/02/01 09:49:38;;;;;;;2.60;0.85;;;;;;;;;;5072585;28;20107;-60
2022/02/01 09:52:04;;;;;;;2.08;0.75;;;;;;;;;;5074185;28;20033;-62
2022/02/01 09:54:31;;;;;;;2.90;1.00;;;;;;;;;;5074374;28;20040;-61
2022/02/01 09:56:58;;;;;;;3.30;0.80;;;;;;;;;;5073445;28;20146;-58
2022/02/01 09:59:31;;;;;;;3.38;1.27;;;;;;;;;;5073560;28;20028;-61
2022/02/01 10:01:57;;;;;;;2.63;0.80;;;;;;;;;;5073426;28;20032;-61
2022/02/01 10:04:27;;;;;;;2.58;0.98;;;;;;;;;;5074170;28;20033;-61
2022/02/01 10:06:55;;;;;;;3.30;0.93;;;;;;;;;;5072805;28;20135;-59
2022/02/01 10:09:21;;;;;;;3.45;1.27;;;;;;;;;;5073598;28;20021;-61
2022/02/01 10:11:49;;;;;;;1.98;0.65;;;;;;;;;;5073173;28;20035;-61
2022/02/01 10:14:24;;;;;;;2.47;0.70;;;;;;;;;;5072424;28;20020;-61
2022/02/01 10:16:56;;;;;;;2.95;1.25;;;;;;;;;;5072652;28;20025;-61
2022/02/01 10:19:22;;;;;;;3.28;0.85;;;;;;;;;;5073208;28;20039;-62
2022/02/01 10:21:49;;;;;;;3.50;0.95;;;;;;;;;;5072917;28;20032;-61
2022/02/01 10:24:15;;;;;;;5.05;1.17;;;;;;;;;;5073434;28;20111;-61
2022/02/01 10:26:41;;;;;;;1.98;1.00;;;;;;;;;;5073084;28;20108;-60
2022/02/01 10:29:18;;;;;;;4.93;1.50;;;;;;;;;;5073220;28;20107;-61
2022/02/01 10:31:50;;;;;;;2.85;0.80;;;;;;;;;;5072807;28;20037;-61
2022/02/01 10:36:48;;;;;;;2.47;0.88;;;;;;;;;;5072590;28;20343;-61
2022/02/01 10:39:22;;;;;;;4.32;0.75;;;;;;;;;;5073296;28;20103;-61
2022/02/01 10:41:56;;;;;;;2.78;1.00;;;;;;;;;;5072337;28;20381;-59
2022/02/01 10:44:22;;;;;;;1.95;0.85;;;;;;;;;;5070740;28;20370;-61
2022/02/01 10:46:54;;;;;;;3.40;0.65;;;;;;;;;;5072478;28;20020;-62
2022/02/01 10:49:27;;;;;;;2.55;0.80;;;;;;;;;;5073158;28;20036;-61
2022/02/01 10:52:20;;;;;;;1.83;0.68;;;;;;;;;;5070892;28;20489;-61
2022/02/01 10:54:45;;;;;;;2.80;0.77;;;;;;;;;;5068464;28;20063;-61
2022/02/01 10:57:12;;;;;;;1.27;0.82;;;;;;;;;;5072283;28;20048;-61
2022/02/01 10:59:39;;;;;;;2.05;0.80;;;;;;;;;;5071608;28;20036;-56
2022/02/01 11:02:06;;;;;;;2.05;0.63;;;;;;;;;;5072757;28;20067;-61
2022/02/01 11:04:34;;;;;;;3.13;0.75;;;;;;;;;;5072605;28;20028;-61
2022/02/01 11:07:00;;;;;;;6.55;0.95;;;;;;;;;;5072249;28;20025;-61
2022/02/01 11:09:33;;;;;;;3.42;0.60;;;;;;;;;;5072466;28;20461;-61
2022/02/01 11:12:06;;;;;;;3.28;0.90;;;;;;;;;;5071582;28;20050;-61
2022/02/01 11:14:37;;;;;;;2.78;0.70;;;;;;;;;;5071748;28;20107;-61
2022/02/01 11:17:07;;;;;;;2.27;0.77;;;;;;;;;;5072307;28;20043;-61
2022/02/01 11:19:44;;;;;;;2.70;0.82;;;;;;;;;;5072153;28;20278;-61
2022/02/01 11:22:17;;;;;;;2.22;0.93;;;;;;;;;;5072670;28;20067;-62
2022/02/01 11:24:50;;;;;;;2.30;1.13;;;;;;;;;;5071290;28;20029;-61
2022/02/01 11:27:18;;;;;;;2.38;0.65;;;;;;;;;;5072185;28;20036;-61
2022/02/01 11:32:36;;;;;;;3.35;1.08;;;;;;;;;;5072605;28;20037;-62
2022/02/01 11:35:06;;;;;;;1.85;0.60;;;;;;;;;;5053882;28;20039;-61
2022/02/01 11:37:32;;;;;;;3.13;1.23;;;;;;;;;;5071725;28;20485;-61
2022/02/01 11:39:59;;;;;;;2.15;0.70;;;;;;;;;;5071233;28;20021;-62
2022/02/01 11:42:33;;;;;;;3.10;0.85;;;;;;;;;;5072172;28;20028;-62
2022/02/01 11:45:01;;;;;;;4.05;0.80;;;;;;;;;;5070297;28;20255;-62
2022/02/01 11:47:35;;;;;;;2.47;1.05;;;;;;;;;;5053109;28;20032;-61
2022/02/01 11:50:11;;;;;;;1.95;0.80;;;;;;;;;;5070557;28;20081;-61
2022/02/01 11:52:43;;;;;;;6.95;0.70;;;;;;;;;;5071467;28;20435;-57
2022/02/01 11:55:10;;;;;;;1.73;0.75;;;;;;;;;;5072191;28;20024;-61
2022/02/01 11:57:41;;;;;;;5.05;0.90;;;;;;;;;;5071447;28;20036;-57
2022/02/01 12:00:16;;;;;;;1.88;1.17;;;;;;;;;;5071790;28;20074;-61
2022/02/01 12:02:49;;;;;;;1.85;1.45;;;;;;;;;;5070862;28;20033;-61
2022/02/01 12:05:28;;;;;;;3.33;1.27;;;;;;;;;;5071779;28;20032;-61
2022/02/01 12:08:03;;;;;;;4.85;2.38;;;;;;;;;;5066283;28;20052;-62
2022/02/01 12:10:29;;;;;;;2.47;1.40;;;;;;;;;;5071015;28;20029;-65
2022/02/01 12:12:57;;;;;;;4.28;1.45;;;;;;;;;;5070776;28;20024;-62
2022/02/01 12:15:33;;;;;;;3.38;1.52;;;;;;;;;;5069891;28;20101;-63
2022/02/01 12:18:28;;;;;;;3.80;1.15;;;;;;;;;;5070137;28;20021;-64
2022/02/01 12:21:12;;;;;;;1.55;1.20;;;;;;;;;;4977672;28;20122;-60
2022/02/01 12:23:44;;;;;;;1.83;0.88;;;;;;;;;;5060348;28;20032;-58
2022/02/01 12:26:17;;;;;;;3.25;0.95;;;;;;;;;;5070967;28;20369;-63
2022/02/01 12:28:44;;;;;;;4.78;1.48;;;;;;;;;;5052985;28;20052;-61
2022/02/01 12:31:11;;;;;;;3.17;0.90;;;;;;;;;;5071221;28;20029;-61
2022/02/01 12:33:44;;;;;;;3.08;0.98;;;;;;;;;;5070697;28;20035;-60
2022/02/01 12:36:11;;;;;;;3.35;0.85;;;;;;;;;;5070995;28;20030;-61
2022/02/01 12:38:38;;;;;;;2.55;0.90;;;;;;;;;;5071003;28;20449;-62
2022/02/01 12:41:16;;;;;;;2.65;0.65;;;;;;;;;;5070818;28;20024;-62
2022/02/01 12:45:47;;;;;;;3.92;0.75;;;;;;;;;;5068473;28;20405;-55
2022/02/01 12:46:54;;;;;;;1.90;0.68;;;;;;;;;;5066383;28;20029;-61
2022/02/01 12:49:31;;;;;;;1.50;0.70;;;;;;;;;;5071553;28;20120;-60
2022/02/01 12:51:57;;;;;;;4.53;1.00;;;;;;;;;;5071388;28;20028;-62
2022/02/01 12:54:25;;;;;;;0.73;0.55;;;;;;;;;;5070981;28;20023;-61
2022/02/01 12:56:51;;;;;;;4.50;1.35;;;;;;;;;;5069546;28;20074;-62
2022/02/01 12:59:18;;;;;;;1.63;0.60;;;;;;;;;;5071246;28;20017;-61
2022/02/01 13:01:45;;;;;;;3.35;0.90;;;;;;;;;;5070196;28;20033;-60
2022/02/01 13:04:20;;;;;;;2.10;0.80;;;;;;;;;;5071224;28;20081;-61
2022/02/01 13:06:47;;;;;;;2.20;1.08;;;;;;;;;;5070511;28;20025;-61
2022/02/01 13:17:21;;;;;;;1.65;0.70;;;;;;;;;;5073896;28;20028;-61
2022/02/01 13:20:07;;;;;;;2.15;0.63;;;;;;;;;;5073583;28;20150;-61
2022/02/01 13:22:34;;;;;;;1.30;0.70;;;;;;;;;;5074763;28;20044;-62
2022/02/01 13:25:01;;;;;;;0.88;0.60;;;;;;;;;;5074026;28;20028;-62
2022/02/01 13:27:27;;;;;;;1.08;0.60;;;;;;;;;;5074790;28;20028;-61
2022/02/01 13:30:00;;;;;;;3.20;0.82;;;;;;;;;;5073921;28;20036;-62
2022/02/01 13:32:37;;;;;;;2.08;0.70;;;;;;;;;;5074379;28;20032;-61
2022/02/01 13:35:07;;;;;;;1.35;0.60;;;;;;;;;;5073847;28;20100;-61
2022/02/01 13:37:34;;;;;;;1.98;0.75;;;;;;;;;;5073139;28;20044;-62
2022/02/01 13:40:00;;;;;;;0.70;0.43;;;;;;;;;;5073489;28;20031;-62
2022/02/01 13:42:35;;;;;;;0.85;0.45;;;;;;;;;;5074101;28;20027;-62
2022/02/01 13:45:04;;;;;;;1.45;0.70;;;;;;;;;;5051877;28;20039;-62
2022/02/01 13:47:40;;;;;;;1.52;0.70;;;;;;;;;;5073568;28;20025;-61
2022/02/01 13:50:08;;;;;;;2.78;0.70;;;;;;;;;;5073676;28;20096;-62
2022/02/01 13:52:34;;;;;;;1.38;0.50;;;;;;;;;;5073953;28;20024;-60
2022/02/01 13:55:00;;;;;;;1.48;0.63;;;;;;;;;;5072998;28;20101;-62
2022/02/01 13:57:29;;;;;;;1.55;0.60;;;;;;;;;;5073915;28;20366;-62
2022/02/01 14:00:06;;;;;;;3.00;1.10;;;;;;;;;;5073344;28;20021;-62
2022/02/01 14:02:37;;;;;;;2.03;0.43;;;;;;;;;;5073505;28;20028;-62
2022/02/01 14:05:16;;;;;;;1.25;0.50;;;;;;;;;;5073064;28;20039;-62
2022/02/01 14:34:22;;;;;;;2.83;0.90;;;;;;;;;;5072847;28;20035;-63
2022/02/01 14:36:48;;;;;;;2.75;0.70;;;;;;;;;;5070346;28;20155;-57
2022/02/01 14:44:49;;;;;;;1.25;0.68;;;;;;;;;;5064034;28;20389;-62
2022/02/01 14:47:16;;;;;;;0.82;0.40;;;;;;;;;;5072318;28;20028;-63
2022/02/01 14:49:42;;;;;;;2.47;0.52;;;;;;;;;;5057369;28;20033;-62
2022/02/01 14:52:08;;;;;;;2.17;0.60;;;;;;;;;;5047287;28;20094;-63
2022/02/01 14:54:40;;;;;;;1.05;0.68;;;;;;;;;;5072848;28;20027;-63
2022/02/01 15:13:16;;;;;;;3.00;0.60;;;;;;;;;;5052782;28;20409;-68
2022/02/01 15:15:42;;;;;;;3.67;0.85;;;;;;;;;;5062475;28;20028;-68
2022/02/01 15:18:08;;;;;;;1.60;0.70;;;;;;;;;;5072686;28;20028;-57
2022/02/01 15:20:35;;;;;;;1.55;1.05;;;;;;;;;;5058065;28;20103;-58
2022/02/01 15:23:01;;;;;;;1.50;0.93;;;;;;;;;;5071668;28;20058;-49
2022/02/01 15:25:27;;;;;;;7.05;0.68;;;;;;;;;;5072233;28;20024;-60
2022/02/01 15:27:53;;;;;;;2.50;0.50;;;;;;;;;;5071781;28;20032;-58
2022/02/01 15:30:19;;;;;;;2.72;0.75;;;;;;;;;;5071731;28;20481;-58
2022/02/01 15:32:45;;;;;;;3.38;0.90;;;;;;;;;;5065373;28;20031;-58
2022/02/01 15:35:16;;;;;;;4.25;0.60;;;;;;;;;;5062008;28;20028;-58
2022/02/01 15:37:44;;;;;;;2.97;0.60;;;;;;;;;;5062365;28;20052;-58
2022/02/01 15:46:56;;;;;;;3.00;0.85;;;;;;;;;;5062714;28;20039;-59
2022/02/01 15:59:33;;;;;;;3.00;0.65;;;;;;;;;;5061916;28;20028;-58
2022/02/01 16:02:07;;;;;;;3.50;0.73;;;;;;;;;;5064348;28;20116;-58
2022/02/01 16:04:34;;;;;;;1.73;0.60;;;;;;;;;;5063452;28;20382;-58
2022/02/01 16:07:03;;;;;;;2.13;0.60;;;;;;;;;;5059126;28;20062;-58
2022/02/01 16:09:43;;;;;;;3.88;0.85;;;;;;;;;;5062543;28;20381;-58
2022/02/01 16:12:11;;;;;;;1.52;0.45;;;;;;;;;;5061983;28;20602;-58
2022/02/01 16:14:37;;;;;;;1.65;0.70;;;;;;;;;;5061825;28;20024;-58
2022/02/01 16:17:04;;;;;;;1.90;0.90;;;;;;;;;;5061558;28;20028;-58
2022/02/01 16:19:30;;;;;;;1.35;0.55;;;;;;;;;;5064140;28;20031;-59
2022/02/01 16:21:56;;;;;;;1.35;0.70;;;;;;;;;;5051045;28;20029;-58
2022/02/01 16:24:23;;;;;;;4.22;0.68;;;;;;;;;;5069098;28;20029;-59
2022/02/01 16:26:49;;;;;;;1.48;0.70;;;;;;;;;;5071175;28;20059;-58
2022/02/01 16:29:15;;;;;;;0.80;0.55;;;;;;;;;;5071106;28;20023;-58
2022/02/01 16:31:42;;;;;;;2.72;0.60;;;;;;;;;;5071481;28;20033;-59
2022/02/01 16:34:09;;;;;;;2.28;1.00;;;;;;;;;;5070675;28;20032;-58
2022/02/01 16:36:36;;;;;;;2.88;0.65;;;;;;;;;;5070924;28;20154;-58
2022/02/01 16:39:03;;;;;;;0.85;0.55;;;;;;;;;;5054105;28;20029;-59
2022/02/01 16:41:30;;;;;;;2.85;0.40;;;;;;;;;;5062674;28;20029;-61
2022/02/01 16:43:57;;;;;;;1.00;0.60;;;;;;;;;;5055902;28;20097;-59
2022/02/01 16:46:23;;;;;;;2.50;0.60;;;;;;;;;;5070729;28;20024;-62
2022/02/01 16:48:50;;;;;;;3.25;0.77;;;;;;;;;;5069768;28;20032;-68
2022/02/01 16:51:16;;;;;;;6.15;1.25;;;;;;;;;;5074129;28;20036;-51
2022/02/01 16:53:47;;;;;;;2.33;0.50;;;;;;;;;;5074831;28;20025;-49
2022/02/01 16:56:22;;;;;;;2.20;0.80;;;;;;;;;;5074513;28;20024;-50
2022/02/01 16:58:55;;;;;;;1.88;0.90;;;;;;;;;;5074670;28;20067;-51
2022/02/01 17:01:21;;;;;;;1.95;0.65;;;;;;;;;;5075049;28;20024;-49
2022/02/01 17:03:48;;;;;;;1.63;0.90;;;;;;;;;;5075181;28;20033;-48
2022/02/01 17:06:14;;;;;;;2.67;0.65;;;;;;;;;;5074409;28;20031;-50
2022/02/01 17:08:40;;;;;;;3.25;0.80;;;;;;;;;;5075094;28;20052;-48
2022/02/01 17:11:41;;;;;;;1.95;0.98;;;;;;;;;;5073680;28;20020;-49
2022/02/01 17:14:06;;;;;;;2.55;1.38;;;;;;;;;;5071039;28;20385;-50
2022/02/01 17:16:58;;;;;;;1.25;0.80;;;;;;;;;;5074673;28;20036;-48
2022/02/01 17:21:48;;;;;;;8.93;2.67;;;;;;;;;;5074622;28;20362;-56
2022/02/01 17:24:18;;;;;;;16.52;7.57;;;;;;;;;;5073983;28;20677;-61
2022/02/01 17:26:45;;;;;;;24.83;11.52;;;;;;;;;;5074890;28;20086;-59
2022/02/01 17:29:11;;;;;;;23.42;14.02;;;;;;;;;;5073685;28;20027;-56
2022/02/01 17:31:37;;;;;;;27.52;12.20;;;;;;;;;;5074557;28;20024;-59
2022/02/01 17:34:03;;;;;;;27.50;11.88;;;;;;;;;;5073798;28;20028;-63
2022/02/01 17:36:29;;;;;;;20.70;9.70;;;;;;;;;;5074473;28;20484;-59
2022/02/01 17:38:58;;;;;;;18.00;9.75;;;;;;;;;;5073405;28;20020;-68
2022/02/01 17:41:24;;;;;;;18.35;9.93;;;;;;;;;;5074234;28;20417;-59